Time;durP1;ratioP1;P1;durP2;ratioP2;P2;SDS_P1;SDS_P2;PMS_P1;PMS_P2;Temp;Humidity;BMP_temperature;BMP_pressure;BME280_temperature;BME280_humidity;BME280_pressure;Samples;Min_cycle;Max_cycle;Signal;HPM_P1;HPM_P2
2022/05/15 00:00:41;;;;;;;;;;;;;;;;;;5095752;28;20379;-75
2022/05/15 00:03:12;;;;;;;;;;;;;;;;;;5092166;28;19931;-75
2022/05/15 00:05:43;;;;;;;;;;;;;;;;;;5094709;28;20287;-75
2022/05/15 00:08:12;;;;;;;;;;;;;;;;;;5096441;28;19931;-76
2022/05/15 00:10:43;;;;;;;;;;;;;;;;;;5096776;28;19919;-76
2022/05/15 00:13:13;;;;;;;;;;;;;;;;;;5087324;28;19924;-76
2022/05/15 00:15:42;;;;;;;;;;;;;;;;;;5088058;28;19924;-76
2022/05/15 00:18:13;;;;;;;;;;;;;;;;;;5087420;28;19931;-76
2022/05/15 00:20:42;;;;;;;;;;;;;;;;;;5087551;28;19920;-75
2022/05/15 00:23:12;;;;;;;;;;;;;;;;;;5085895;28;20311;-75
2022/05/15 00:25:43;;;;;;;;;;;;;;;;;;5087232;28;19935;-76
2022/05/15 00:28:13;;;;;;;;;;;;;;;;;;5089013;28;19923;-76
2022/05/15 00:30:43;;;;;;;;;;;;;;;;;;5087765;28;19947;-75
2022/05/15 00:33:12;;;;;;;;;;;;;;;;;;5087306;28;20272;-75
2022/05/15 00:35:42;;;;;;;;;;;;;;;;;;5087753;28;20222;-77
2022/05/15 00:38:12;;;;;;;;;;;;;;;;;;5087511;28;19924;-77
2022/05/15 00:40:43;;;;;;;;;;;;;;;;;;5087679;28;19924;-77
2022/05/15 00:43:33;;;;;;;;;;;;;;;;;;5085352;28;19920;-75
2022/05/15 00:46:04;;;;;;;;;;;;;;;;;;5087331;28;19924;-77
2022/05/15 00:48:34;;;;;;;;;;;;;;;;;;5087305;28;19931;-76
2022/05/15 00:51:08;;;;;;;;;;;;;;;;;;5085239;28;19982;-75
2022/05/15 00:53:39;;;;;;;;;;;;;;;;;;5086966;28;19924;-75
2022/05/15 00:56:09;;;;;;;;;;;;;;;;;;5087252;28;19924;-75
2022/05/15 00:58:39;;;;;;;;;;;;;;;;;;5083333;28;19935;-75
2022/05/15 01:01:09;;;;;;;;;;;;;;;;;;5085740;28;19924;-75
2022/05/15 01:03:39;;;;;;;;;;;;;;;;;;5085423;28;19927;-75
2022/05/15 01:06:09;;;;;;;;;;;;;;;;;;5086488;28;19924;-76
2022/05/15 01:08:39;;;;;;;;;;;;;;;;;;5084539;28;19935;-75
2022/05/15 01:11:11;;;;;;;;;;;;;;;;;;5086344;28;20323;-75
2022/05/15 01:13:42;;;;;;;;;;;;;;;;;;5069257;28;19931;-76
2022/05/15 01:16:13;;;;;;;;;;;;;;;;;;5085442;28;19920;-75
2022/05/15 01:18:44;;;;;;;;;;;;;;;;;;5085330;28;19927;-75
2022/05/15 01:21:18;;;;;;;;;;;;;;;;;;5085251;28;19931;-75
2022/05/15 01:23:48;;;;;;;;;;;;;;;;;;5087092;28;19931;-75
2022/05/15 01:26:18;;;;;;;;;;;;;;;;;;5087915;28;20302;-74
2022/05/15 01:28:48;;;;;;;;;;;;;;;;;;5089212;28;19924;-75
2022/05/15 01:31:17;;;;;;;;;;;;;;;;;;5090513;28;19946;-74
2022/05/15 01:33:48;;;;;;;;;;;;;;;;;;5091078;28;19957;-74
2022/05/15 01:36:20;;;;;;;;;;;;;;;;;;5089343;28;19928;-74
2022/05/15 01:38:50;;;;;;;;;;;;;;;;;;5089264;28;19927;-75
2022/05/15 01:41:19;;;;;;;;;;;;;;;;;;5088872;28;19928;-74
2022/05/15 01:43:53;;;;;;;;;;;;;;;;;;5089168;28;19924;-74
2022/05/15 01:46:27;;;;;;;;;;;;;;;;;;5088895;28;19928;-75
2022/05/15 01:49:02;;;;;;;;;;;;;;;;;;5089184;28;20061;-74
2022/05/15 01:51:33;;;;;;;;;;;;;;;;;;5088581;28;19927;-75
2022/05/15 01:54:02;;;;;;;;;;;;;;;;;;5088440;28;19924;-74
2022/05/15 01:56:32;;;;;;;;;;;;;;;;;;5088941;28;19923;-75
2022/05/15 01:59:02;;;;;;;;;;;;;;;;;;5088356;28;20401;-75
2022/05/15 02:01:32;;;;;;;;;;;;;;;;;;5088590;28;19924;-75
2022/05/15 02:04:02;;;;;;;;;;;;;;;;;;5088427;28;19924;-75
2022/05/15 02:06:31;;;;;;;;;;;;;;;;;;5088436;28;20280;-75
2022/05/15 02:09:00;;;;;;;;;;;;;;;;;;5089954;28;19924;-76
2022/05/15 02:11:30;;;;;;;;;;;;;;;;;;5088459;28;19920;-75
2022/05/15 02:14:00;;;;;;;;;;;;;;;;;;5088383;28;19990;-75
2022/05/15 02:16:31;;;;;;;;;;;;;;;;;;5071693;28;19931;-74
2022/05/15 02:19:00;;;;;;;;;;;;;;;;;;5089579;28;20371;-75
2022/05/15 02:21:30;;;;;;;;;;;;;;;;;;5088196;28;19931;-75
2022/05/15 02:24:00;;;;;;;;;;;;;;;;;;5087496;28;20311;-75
2022/05/15 02:26:33;;;;;;;;;;;;;;;;;;5088298;28;19927;-75
2022/05/15 02:29:03;;;;;;;;;;;;;;;;;;5071715;28;20387;-75
2022/05/15 02:31:34;;;;;;;;;;;;;;;;;;5089176;28;19924;-74
2022/05/15 02:34:04;;;;;;;;;;;;;;;;;;5087885;28;19927;-75
2022/05/15 02:36:34;;;;;;;;;;;;;;;;;;5086704;28;20302;-77
2022/05/15 02:39:04;;;;;;;;;;;;;;;;;;5088022;28;19924;-75
2022/05/15 02:41:34;;;;;;;;;;;;;;;;;;5087834;28;19933;-76
2022/05/15 02:44:05;;;;;;;;;;;;;;;;;;5087498;28;19924;-76
2022/05/15 02:46:34;;;;;;;;;;;;;;;;;;5089324;28;19924;-75
2022/05/15 02:51:53;;;;;;;;;;;;;;;;;;5087609;28;20338;-75
2022/05/15 02:54:23;;;;;;;;;;;;;;;;;;5087256;28;19938;-75
2022/05/15 02:56:52;;;;;;;;;;;;;;;;;;5087694;28;19920;-75
2022/05/15 02:59:21;;;;;;;;;;;;;;;;;;5088164;28;19924;-75
2022/05/15 03:01:51;;;;;;;;;;;;;;;;;;5087470;28;20307;-75
2022/05/15 03:04:20;;;;;;;;;;;;;;;;;;5087120;28;19924;-75
2022/05/15 03:06:50;;;;;;;;;;;;;;;;;;5087065;28;20331;-75
2022/05/15 03:09:20;;;;;;;;;;;;;;;;;;5086838;28;19960;-75
2022/05/15 03:11:49;;;;;;;;;;;;;;;;;;5089158;28;19931;-75
2022/05/15 03:14:18;;;;;;;;;;;;;;;;;;5086962;28;19923;-75
2022/05/15 03:16:48;;;;;;;;;;;;;;;;;;5088643;28;19919;-74
2022/05/15 03:19:17;;;;;;;;;;;;;;;;;;5088862;28;19924;-75
2022/05/15 03:21:47;;;;;;;;;;;;;;;;;;5087039;28;20586;-74
2022/05/15 03:24:17;;;;;;;;;;;;;;;;;;5086990;28;19924;-75
2022/05/15 03:26:47;;;;;;;;;;;;;;;;;;5089216;28;19935;-75
2022/05/15 03:29:18;;;;;;;;;;;;;;;;;;5088696;28;20306;-75
2022/05/15 03:31:47;;;;;;;;;;;;;;;;;;5086629;28;19920;-75
2022/05/15 03:34:17;;;;;;;;;;;;;;;;;;5087043;28;19931;-75
2022/05/15 03:36:47;;;;;;;;;;;;;;;;;;5086728;28;19928;-75
2022/05/15 03:39:19;;;;;;;;;;;;;;;;;;5087419;28;19930;-75
2022/05/15 03:41:50;;;;;;;;;;;;;;;;;;5088625;28;19923;-75
2022/05/15 03:44:19;;;;;;;;;;;;;;;;;;5087391;28;20391;-74
2022/05/15 03:46:51;;;;;;;;;;;;;;;;;;5087171;28;19928;-75
2022/05/15 03:49:21;;;;;;;;;;;;;;;;;;5088336;28;19931;-75
2022/05/15 03:51:50;;;;;;;;;;;;;;;;;;5086136;28;19927;-75
2022/05/15 03:54:20;;;;;;;;;;;;;;;;;;5085843;28;19920;-74
2022/05/15 03:56:52;;;;;;;;;;;;;;;;;;5086234;28;19924;-75
2022/05/15 03:59:25;;;;;;;;;;;;;;;;;;5086350;28;19947;-75
2022/05/15 04:01:54;;;;;;;;;;;;;;;;;;5088519;28;19924;-75
2022/05/15 04:04:27;;;;;;;;;;;;;;;;;;5086267;28;19924;-74
2022/05/15 04:06:57;;;;;;;;;;;;;;;;;;5085586;28;20652;-75
2022/05/15 04:09:27;;;;;;;;;;;;;;;;;;5086222;28;19924;-75
2022/05/15 04:11:56;;;;;;;;;;;;;;;;;;5086658;28;19935;-75
2022/05/15 04:14:26;;;;;;;;;;;;;;;;;;5087728;28;19930;-74
2022/05/15 04:16:55;;;;;;;;;;;;;;;;;;5087847;28;19927;-75
2022/05/15 04:19:25;;;;;;;;;;;;;;;;;;5087162;28;19930;-74
2022/05/15 04:21:57;;;;;;;;;;;;;;;;;;5086081;28;19924;-75
2022/05/15 04:24:26;;;;;;;;;;;;;;;;;;5085630;28;20665;-74
2022/05/15 04:26:56;;;;;;;;;;;;;;;;;;5086613;28;19920;-75
2022/05/15 04:29:25;;;;;;;;;;;;;;;;;;5085565;28;19924;-75
2022/05/15 04:31:57;;;;;;;;;;;;;;;;;;5087376;28;19924;-75
2022/05/15 04:34:29;;;;;;;;;;;;;;;;;;5086073;28;19931;-75
2022/05/15 04:36:59;;;;;;;;;;;;;;;;;;5086330;28;21011;-75
2022/05/15 04:39:32;;;;;;;;;;;;;;;;;;5087061;28;20710;-75
2022/05/15 04:42:02;;;;;;;;;;;;;;;;;;5087386;28;19924;-75
2022/05/15 04:44:31;;;;;;;;;;;;;;;;;;5086999;28;19946;-75
2022/05/15 04:47:00;;;;;;;;;;;;;;;;;;5087716;28;19924;-75
2022/05/15 04:49:29;;;;;;;;;;;;;;;;;;5087717;28;19924;-75
2022/05/15 04:51:59;;;;;;;;;;;;;;;;;;5084709;28;20438;-75
2022/05/15 04:54:28;;;;;;;;;;;;;;;;;;5087110;28;19931;-75
2022/05/15 04:56:57;;;;;;;;;;;;;;;;;;5087390;28;19924;-76
2022/05/15 04:59:26;;;;;;;;;;;;;;;;;;5086219;28;19928;-75
2022/05/15 05:01:57;;;;;;;;;;;;;;;;;;5087333;28;20317;-76
2022/05/15 05:04:26;;;;;;;;;;;;;;;;;;5087486;28;19931;-76
2022/05/15 05:06:55;;;;;;;;;;;;;;;;;;5087196;28;19920;-76
2022/05/15 05:09:26;;;;;;;;;;;;;;;;;;5087476;28;19924;-75
2022/05/15 05:11:55;;;;;;;;;;;;;;;;;;5086855;28;19923;-76
2022/05/15 05:14:25;;;;;;;;;;;;;;;;;;5087404;28;19935;-76
2022/05/15 05:16:54;;;;;;;;;;;;;;;;;;5086799;28;19924;-76
2022/05/15 05:19:23;;;;;;;;;;;;;;;;;;5086788;28;19920;-75
2022/05/15 05:21:52;;;;;;;;;;;;;;;;;;5087115;28;20295;-76
2022/05/15 05:24:22;;;;;;;;;;;;;;;;;;5087686;28;20693;-75
2022/05/15 05:26:51;;;;;;;;;;;;;;;;;;5087320;28;19924;-76
2022/05/15 05:29:21;;;;;;;;;;;;;;;;;;5087038;28;19951;-75
2022/05/15 05:31:50;;;;;;;;;;;;;;;;;;5085011;28;19920;-75
2022/05/15 05:34:20;;;;;;;;;;;;;;;;;;5086970;28;19931;-75
2022/05/15 05:36:49;;;;;;;;;;;;;;;;;;5086229;28;19928;-75
2022/05/15 05:39:18;;;;;;;;;;;;;;;;;;5086487;28;19923;-76
2022/05/15 05:41:48;;;;;;;;;;;;;;;;;;5087214;28;19920;-75
2022/05/15 05:44:17;;;;;;;;;;;;;;;;;;5085266;28;19924;-75
2022/05/15 05:46:46;;;;;;;;;;;;;;;;;;5086354;28;20436;-75
2022/05/15 05:49:16;;;;;;;;;;;;;;;;;;5085996;28;20295;-76
2022/05/15 05:51:45;;;;;;;;;;;;;;;;;;5086588;28;19924;-76
2022/05/15 05:54:14;;;;;;;;;;;;;;;;;;5086216;28;19924;-75
2022/05/15 05:56:44;;;;;;;;;;;;;;;;;;5085941;28;19947;-75
2022/05/15 05:59:13;;;;;;;;;;;;;;;;;;5086512;28;19924;-76
2022/05/15 06:01:43;;;;;;;;;;;;;;;;;;5085934;28;19943;-75
2022/05/15 06:07:00;;;;;;;;;;;;;;;;;;5086172;28;19920;-76
2022/05/15 06:09:30;;;;;;;;;;;;;;;;;;5086479;28;19946;-75
2022/05/15 06:12:00;;;;;;;;;;;;;;;;;;5087223;28;19923;-76
2022/05/15 06:14:29;;;;;;;;;;;;;;;;;;5089861;28;19943;-76
2022/05/15 06:16:58;;;;;;;;;;;;;;;;;;5089789;28;19920;-76
2022/05/15 06:19:28;;;;;;;;;;;;;;;;;;5090077;28;19924;-76
2022/05/15 06:21:57;;;;;;;;;;;;;;;;;;5089668;28;19924;-74
2022/05/15 06:24:26;;;;;;;;;;;;;;;;;;5090036;28;19920;-76
2022/05/15 06:26:59;;;;;;;;;;;;;;;;;;5089873;28;19924;-76
2022/05/15 06:29:30;;;;;;;;;;;;;;;;;;5089400;28;20291;-76
2022/05/15 06:31:59;;;;;;;;;;;;;;;;;;5089564;28;20512;-75
2022/05/15 06:34:29;;;;;;;;;;;;;;;;;;5090047;28;19931;-76
2022/05/15 06:36:58;;;;;;;;;;;;;;;;;;5089085;28;19923;-76
2022/05/15 06:39:28;;;;;;;;;;;;;;;;;;5089400;28;19920;-76
2022/05/15 06:41:59;;;;;;;;;;;;;;;;;;5089398;28;20280;-75
2022/05/15 06:44:41;;;;;;;;;;;;;;;;;;5088002;28;19928;-76
2022/05/15 06:47:11;;;;;;;;;;;;;;;;;;5089151;28;19942;-76
2022/05/15 06:49:40;;;;;;;;;;;;;;;;;;5089143;28;19924;-75
2022/05/15 06:52:09;;;;;;;;;;;;;;;;;;5089197;28;19931;-76
2022/05/15 06:54:40;;;;;;;;;;;;;;;;;;5088830;28;20485;-76
2022/05/15 07:00:03;;;;;;;;;;;;;;;;;;5089534;28;19931;-75
2022/05/15 07:02:33;;;;;;;;;;;;;;;;;;5088951;28;19920;-75
2022/05/15 07:05:04;;;;;;;;;;;;;;;;;;5089419;28;19930;-75
2022/05/15 07:07:33;;;;;;;;;;;;;;;;;;5087877;28;19931;-75
2022/05/15 07:10:03;;;;;;;;;;;;;;;;;;5088446;28;19928;-76
2022/05/15 07:12:32;;;;;;;;;;;;;;;;;;5088704;28;19930;-75
2022/05/15 07:15:03;;;;;;;;;;;;;;;;;;5088710;28;19924;-75
2022/05/15 07:17:33;;;;;;;;;;;;;;;;;;5088834;28;19923;-76
2022/05/15 07:20:03;;;;;;;;;;;;;;;;;;5087381;28;19930;-76
2022/05/15 07:22:33;;;;;;;;;;;;;;;;;;5088335;28;20307;-76
2022/05/15 07:25:02;;;;;;;;;;;;;;;;;;5088659;28;19924;-76
2022/05/15 07:27:32;;;;;;;;;;;;;;;;;;5089043;28;20425;-75
2022/05/15 07:30:01;;;;;;;;;;;;;;;;;;5088675;28;20287;-76
2022/05/15 07:32:31;;;;;;;;;;;;;;;;;;5088398;28;19924;-75
2022/05/15 07:35:00;;;;;;;;;;;;;;;;;;5088316;28;19931;-76
2022/05/15 07:37:30;;;;;;;;;;;;;;;;;;5088133;28;20307;-76
2022/05/15 07:39:59;;;;;;;;;;;;;;;;;;5088177;28;20473;-75
2022/05/15 07:42:29;;;;;;;;;;;;;;;;;;5087877;28;19920;-75
2022/05/15 07:44:59;;;;;;;;;;;;;;;;;;5088258;28;19927;-76
2022/05/15 07:47:28;;;;;;;;;;;;;;;;;;5088013;28;20276;-76
2022/05/15 07:49:58;;;;;;;;;;;;;;;;;;5086835;28;21014;-76
2022/05/15 07:52:27;;;;;;;;;;;;;;;;;;5088303;28;19924;-75
2022/05/15 07:54:57;;;;;;;;;;;;;;;;;;5087981;28;20521;-75
2022/05/15 07:57:26;;;;;;;;;;;;;;;;;;5087810;28;20284;-76
2022/05/15 07:59:56;;;;;;;;;;;;;;;;;;5087698;28;20398;-74
2022/05/15 08:02:25;;;;;;;;;;;;;;;;;;5087912;28;19931;-76
2022/05/15 08:10:32;;;;;;;;;;;;;;;;;;5088244;28;19924;-76
2022/05/15 08:13:02;;;;;;;;;;;;;;;;;;5087444;28;19924;-76
2022/05/15 08:15:32;;;;;;;;;;;;;;;;;;5087180;28;19927;-76
2022/05/15 08:23:40;;;;;;;;;;;;;;;;;;5087842;28;19924;-75
2022/05/15 08:26:11;;;;;;;;;;;;;;;;;;5087804;28;20275;-76
2022/05/15 08:28:40;;;;;;;;;;;;;;;;;;5088355;28;20299;-75
2022/05/15 08:31:11;;;;;;;;;;;;;;;;;;5085109;28;19924;-76
2022/05/15 08:33:41;;;;;;;;;;;;;;;;;;5087227;28;19924;-76
2022/05/15 08:36:11;;;;;;;;;;;;;;;;;;5087038;28;20205;-76
2022/05/15 08:38:43;;;;;;;;;;;;;;;;;;5087257;28;19924;-76
2022/05/15 08:41:29;;;;;;;;;;;;;;;;;;5086052;28;19924;-76
2022/05/15 08:43:58;;;;;;;;;;;;;;;;;;5087115;28;19924;-77
2022/05/15 08:46:46;;;;;;;;;;;;;;;;;;5087026;28;20296;-77
2022/05/15 08:49:21;;;;;;;;;;;;;;;;;;5087016;28;19931;-76
2022/05/15 08:51:58;;;;;;;;;;;;;;;;;;5087106;28;19920;-77
2022/05/15 08:54:28;;;;;;;;;;;;;;;;;;5087605;28;19924;-76
2022/05/15 08:56:59;;;;;;;;;;;;;;;;;;5087147;28;19924;-76
2022/05/15 08:59:31;;;;;;;;;;;;;;;;;;5087225;28;19927;-76
2022/05/15 09:02:01;;;;;;;;;;;;;;;;;;5086974;28;19994;-76
2022/05/15 09:04:31;;;;;;;;;;;;;;;;;;5086320;28;19927;-76
2022/05/15 09:07:09;;;;;;;;;;;;;;;;;;5087229;28;19920;-76
2022/05/15 09:09:45;;;;;;;;;;;;;;;;;;5086784;28;20465;-76
2022/05/15 09:12:16;;;;;;;;;;;;;;;;;;5086760;28;19924;-77
2022/05/15 09:15:01;;;;;;;;;;;;;;;;;;5087259;28;20395;-77
2022/05/15 09:17:37;;;;;;;;;;;;;;;;;;5086688;28;20004;-77
2022/05/15 09:20:13;;;;;;;;;;;;;;;;;;5086780;28;19931;-76
2022/05/15 09:22:45;;;;;;;;;;;;;;;;;;5085740;28;19931;-77
2022/05/15 09:25:18;;;;;;;;;;;;;;;;;;5086612;28;19924;-76
2022/05/15 09:28:01;;;;;;;;;;;;;;;;;;5086821;28;20311;-76
2022/05/15 09:30:32;;;;;;;;;;;;;;;;;;5085716;28;20280;-76
2022/05/15 09:33:02;;;;;;;;;;;;;;;;;;5085059;28;19920;-76
2022/05/15 09:35:31;;;;;;;;;;;;;;;;;;5086861;28;19924;-76
2022/05/15 09:43:52;;;;;;;;;;;;;;;;;;5086528;28;20315;-77
2022/05/15 09:46:24;;;;;;;;;;;;;;;;;;5088408;28;19931;-76
2022/05/15 09:49:06;;;;;;;;;;;;;;;;;;5090556;28;19928;-76
2022/05/15 09:51:43;;;;;;;;;;;;;;;;;;5089972;28;19920;-76
2022/05/15 09:54:30;;;;;;;;;;;;;;;;;;5089836;28;19931;-76
2022/05/15 09:57:14;;;;;;;;;;;;;;;;;;5089680;28;19924;-76
2022/05/15 09:59:51;;;;;;;;;;;;;;;;;;5090195;28;19931;-76
2022/05/15 10:02:22;;;;;;;;;;;;;;;;;;5089584;28;19924;-76
2022/05/15 10:04:53;;;;;;;;;;;;;;;;;;5088900;28;19924;-76
2022/05/15 10:07:31;;;;;;;;;;;;;;;;;;5090281;28;19924;-76
2022/05/15 10:10:14;;;;;;;;;;;;;;;;;;5090325;28;19924;-75
2022/05/15 10:12:46;;;;;;;;;;;;;;;;;;5090230;28;20295;-75
2022/05/15 10:15:16;;;;;;;;;;;;;;;;;;5089693;28;20417;-75
2022/05/15 10:17:52;;;;;;;;;;;;;;;;;;5088183;28;19955;-75
2022/05/15 10:20:26;;;;;;;;;;;;;;;;;;5089851;28;19994;-76
2022/05/15 10:22:56;;;;;;;;;;;;;;;;;;5090171;28;19947;-75
2022/05/15 10:25:25;;;;;;;;;;;;;;;;;;5089636;28;19923;-76
2022/05/15 10:28:05;;;;;;;;;;;;;;;;;;5090039;28;19924;-75
2022/05/15 10:30:38;;;;;;;;;;;;;;;;;;5090119;28;19935;-76
2022/05/15 10:33:15;;;;;;;;;;;;;;;;;;5089519;28;19924;-75
2022/05/15 10:35:50;;;;;;;;;;;;;;;;;;5089730;28;19927;-75
2022/05/15 10:38:23;;;;;;;;;;;;;;;;;;5089691;28;19923;-76
2022/05/15 10:41:15;;;;;;;;;;;;;;;;;;5089305;28;19924;-77
2022/05/15 10:44:00;;;;;;;;;;;;;;;;;;5089382;28;19931;-77
2022/05/15 10:57:40;;;;;;;4.38;3.97;;;;;;;;;;5144809;27;21140;-74
2022/05/15 11:00:27;;;;;;;4.50;3.47;;;;;;;;;;5145116;27;20047;-78
2022/05/15 11:03:10;;;;;;;3.80;3.50;;;;;;;;;;5126924;27;20519;-77
2022/05/15 11:06:03;;;;;;;5.45;3.67;;;;;;;;;;5144623;27;20051;-77
2022/05/15 11:08:47;;;;;;;9.35;3.50;;;;;;;;;;5144549;27;20049;-76
2022/05/15 11:12:02;;;;;;;3.53;3.22;;;;;;;;;;5144741;27;20043;-76
2022/05/15 11:14:43;;;;;;;5.03;3.25;;;;;;;;;;5059668;28;20057;-82
2022/05/15 11:17:43;;;;;;;8.00;3.53;;;;;;;;;;5144539;27;20053;-76
2022/05/15 11:20:24;;;;;;;4.20;3.80;;;;;;;;;;5145338;27;20061;-74
2022/05/15 11:23:24;;;;;;;4.57;4.18;;;;;;;;;;5127604;27;20405;-75
2022/05/15 11:26:21;;;;;;;5.35;4.78;;;;;;;;;;5142002;27;20054;-77
2022/05/15 11:28:56;;;;;;;5.47;4.97;;;;;;;;;;5131346;27;20074;-76
2022/05/15 11:31:35;;;;;;;5.60;5.10;;;;;;;;;;5144020;27;20396;-76
2022/05/15 11:34:08;;;;;;;11.48;5.70;;;;;;;;;;5144354;27;20054;-82
2022/05/15 11:36:47;;;;;;;8.25;5.78;;;;;;;;;;5144877;27;20053;-75
2022/05/15 11:39:25;;;;;;;7.60;5.88;;;;;;;;;;5144427;27;20051;-75
2022/05/15 11:42:13;;;;;;;9.55;7.78;;;;;;;;;;5144340;27;20050;-75
2022/05/15 11:44:47;;;;;;;6.85;6.20;;;;;;;;;;5144487;27;20047;-75
2022/05/15 11:47:37;;;;;;;6.75;6.10;;;;;;;;;;5144250;27;20512;-75
2022/05/15 11:50:15;;;;;;;6.40;5.80;;;;;;;;;;5145130;27;20051;-75
2022/05/15 11:52:51;;;;;;;6.72;6.07;;;;;;;;;;5147301;27;20046;-75
2022/05/15 11:55:37;;;;;;;6.93;5.88;;;;;;;;;;5146599;27;20999;-75
2022/05/15 11:58:26;;;;;;;6.43;5.57;;;;;;;;;;5152527;27;20046;-75
2022/05/15 12:01:05;;;;;;;6.35;5.75;;;;;;;;;;5155998;27;20019;-76
2022/05/15 12:03:56;;;;;;;6.30;5.80;;;;;;;;;;5156703;27;20041;-76
2022/05/15 12:06:29;;;;;;;7.40;6.40;;;;;;;;;;5156431;27;20031;-74
2022/05/15 12:09:20;;;;;;;9.90;7.53;;;;;;;;;;5155185;27;20057;-76
2022/05/15 12:11:57;;;;;;;7.43;6.70;;;;;;;;;;5131171;27;20058;-74
2022/05/15 12:14:33;;;;;;;8.27;7.30;;;;;;;;;;5131662;27;20521;-76
2022/05/15 12:17:29;;;;;;;10.15;7.85;;;;;;;;;;5128561;27;20043;-74
2022/05/15 12:20:17;;;;;;;8.18;7.28;;;;;;;;;;5132047;27;20043;-75
2022/05/15 12:22:57;;;;;;;12.00;9.40;;;;;;;;;;5131463;27;20425;-78
2022/05/15 12:25:34;;;;;;;9.25;8.25;;;;;;;;;;5129259;27;20047;-74
2022/05/15 12:28:52;;;;;;;10.60;9.52;;;;;;;;;;5110738;27;20057;-75
2022/05/15 12:31:39;;;;;;;12.82;9.80;;;;;;;;;;5129142;27;20058;-74
2022/05/15 12:34:36;;;;;;;15.57;10.05;;;;;;;;;;5125631;27;20051;-75
2022/05/15 12:37:11;;;;;;;11.88;9.52;;;;;;;;;;5126688;27;20046;-75
2022/05/15 12:39:44;;;;;;;10.02;8.88;;;;;;;;;;5127455;27;20043;-76
2022/05/15 12:42:37;;;;;;;14.63;11.63;;;;;;;;;;5128767;27;20039;-74
2022/05/15 12:45:13;;;;;;;14.23;10.02;;;;;;;;;;5127917;27;20043;-76
2022/05/15 12:47:43;;;;;;;11.48;9.75;;;;;;;;;;5128909;27;20039;-74
2022/05/15 12:50:22;;;;;;;12.18;10.05;;;;;;;;;;5128285;27;20039;-76
2022/05/15 12:52:58;;;;;;;10.82;9.60;;;;;;;;;;5129605;27;20043;-75
2022/05/15 12:55:36;;;;;;;14.38;9.93;;;;;;;;;;5128932;27;20055;-76
2022/05/15 12:58:07;;;;;;;11.20;9.70;;;;;;;;;;5129372;27;20379;-76
2022/05/15 13:00:42;;;;;;;10.85;9.68;;;;;;;;;;5127734;27;20078;-73
2022/05/15 13:03:13;;;;;;;12.73;11.13;;;;;;;;;;5124933;27;20044;-74
2022/05/15 13:05:52;;;;;;;12.45;9.80;;;;;;;;;;5124632;27;20057;-76
2022/05/15 13:08:23;;;;;;;10.45;9.45;;;;;;;;;;5128120;27;20117;-78
2022/05/15 13:11:01;;;;;;;9.88;8.80;;;;;;;;;;5127664;27;20067;-75
2022/05/15 13:13:35;;;;;;;10.70;8.98;;;;;;;;;;5128907;27;20054;-76
2022/05/15 13:16:15;;;;;;;10.95;9.85;;;;;;;;;;5128147;27;20054;-75
2022/05/15 13:18:48;;;;;;;10.32;9.32;;;;;;;;;;5128611;27;20050;-75
2022/05/15 13:21:39;;;;;;;11.88;10.60;;;;;;;;;;5126653;27;20054;-75
2022/05/15 13:24:11;;;;;;;10.63;9.53;;;;;;;;;;5127901;27;20050;-76
2022/05/15 13:26:46;;;;;;;10.85;9.73;;;;;;;;;;5128200;27;20308;-74
2022/05/15 13:29:22;;;;;;;30.95;26.77;;;;;;;;;;5126483;27;20046;-74
2022/05/15 13:31:54;;;;;;;12.32;11.00;;;;;;;;;;5127812;27;20047;-77
2022/05/15 13:34:28;;;;;;;11.00;9.85;;;;;;;;;;5126249;27;20061;-79
2022/05/15 13:37:03;;;;;;;11.70;10.43;;;;;;;;;;5128803;27;20381;-75
2022/05/15 13:45:21;;;;;;;9.48;8.60;;;;;;;;;;5127343;27;20051;-77
2022/05/15 13:48:08;;;;;;;9.93;8.93;;;;;;;;;;5128077;27;20051;-75
2022/05/15 13:50:43;;;;;;;9.57;8.57;;;;;;;;;;5128213;27;20047;-75
2022/05/15 13:53:40;;;;;;;10.93;8.25;;;;;;;;;;5127307;27;20046;-74
2022/05/15 13:56:23;;;;;;;8.23;7.43;;;;;;;;;;5127208;27;20058;-77
2022/05/15 13:58:56;;;;;;;10.30;8.32;;;;;;;;;;5128025;27;20510;-80
2022/05/15 14:01:29;;;;;;;11.80;9.30;;;;;;;;;;5127517;27;20039;-75
2022/05/15 14:04:28;;;;;;;10.57;9.43;;;;;;;;;;5129527;27;20054;-76
2022/05/15 14:06:58;;;;;;;11.73;10.52;;;;;;;;;;5127530;27;20051;-73
2022/05/15 14:09:50;;;;;;;9.77;8.77;;;;;;;;;;5125674;27;20058;-75
2022/05/15 14:12:52;;;;;;;11.13;9.60;;;;;;;;;;5125698;27;20039;-76
2022/05/15 14:15:41;;;;;;;10.35;9.30;;;;;;;;;;5127381;27;20051;-77
2022/05/15 14:18:27;;;;;;;11.00;9.80;;;;;;;;;;5126340;27;20051;-77
2022/05/15 14:21:15;;;;;;;15.10;12.07;;;;;;;;;;5127204;27;20046;-77
2022/05/15 14:23:45;;;;;;;19.70;11.52;;;;;;;;;;5127126;27;20051;-77
2022/05/15 14:26:17;;;;;;;15.70;12.57;;;;;;;;;;5126928;27;20498;-75
2022/05/15 14:28:47;;;;;;;14.60;12.27;;;;;;;;;;5126860;27;20049;-75
2022/05/15 14:31:21;;;;;;;19.50;14.20;;;;;;;;;;5126056;27;20047;-76
2022/05/15 14:33:52;;;;;;;12.80;11.50;;;;;;;;;;5126104;27;20128;-76
2022/05/15 14:36:23;;;;;;;16.00;13.45;;;;;;;;;;5125492;27;20043;-77
2022/05/15 14:38:53;;;;;;;16.42;13.02;;;;;;;;;;5127181;27;20050;-76
2022/05/15 14:41:25;;;;;;;13.90;12.30;;;;;;;;;;5126717;27;20494;-79
2022/05/15 14:43:55;;;;;;;16.88;13.00;;;;;;;;;;5127267;28;20050;-77
2022/05/15 14:46:34;;;;;;;21.90;12.52;;;;;;;;;;5126327;27;20382;-77
2022/05/15 14:49:05;;;;;;;23.48;13.30;;;;;;;;;;5124697;28;20790;-76
2022/05/15 14:51:38;;;;;;;17.02;15.23;;;;;;;;;;5126180;28;20618;-81
2022/05/15 14:54:15;;;;;;;19.65;15.65;;;;;;;;;;5126387;28;20058;-74
2022/05/15 14:56:45;;;;;;;18.45;14.02;;;;;;;;;;5126931;27;20039;-74
2022/05/15 14:59:19;;;;;;;17.83;13.55;;;;;;;;;;5127295;27;20397;-74
2022/05/15 15:01:50;;;;;;;26.08;14.73;;;;;;;;;;5125947;27;20051;-76
2022/05/15 15:04:21;;;;;;;23.33;14.77;;;;;;;;;;5126597;27;20501;-76
2022/05/15 15:06:52;;;;;;;18.23;14.20;;;;;;;;;;5126843;28;20394;-76
2022/05/15 15:09:22;;;;;;;17.52;13.80;;;;;;;;;;5125340;28;20047;-76
2022/05/15 15:11:54;;;;;;;26.85;15.07;;;;;;;;;;5126658;27;20047;-74
2022/05/15 15:14:24;;;;;;;15.48;12.68;;;;;;;;;;5126519;27;20050;-73
2022/05/15 15:16:56;;;;;;;14.25;12.55;;;;;;;;;;5126303;27;20494;-77
2022/05/15 15:19:29;;;;;;;28.00;22.38;;;;;;;;;;5124383;27;20047;-74
2022/05/15 15:22:00;;;;;;;14.82;12.70;;;;;;;;;;5127395;27;20409;-75
2022/05/15 15:24:29;;;;;;;13.05;11.07;;;;;;;;;;5127108;27;20047;-74
2022/05/15 15:26:59;;;;;;;15.25;12.88;;;;;;;;;;5127125;27;20043;-75
2022/05/15 15:29:29;;;;;;;13.38;11.48;;;;;;;;;;5126801;27;20058;-75
2022/05/15 15:31:59;;;;;;;21.73;13.48;;;;;;;;;;5127704;27;20588;-76
2022/05/15 15:34:29;;;;;;;19.63;13.63;;;;;;;;;;5130046;27;20047;-80
2022/05/15 15:39:52;;;;;;;17.63;14.00;;;;;;;;;;5101100;27;20051;-75
2022/05/15 15:42:22;;;;;;;19.33;12.98;;;;;;;;;;5128808;27;20062;-73
2022/05/15 15:44:52;;;;;;;19.23;14.13;;;;;;;;;;5130011;27;20051;-74
2022/05/15 15:47:28;;;;;;;18.95;14.95;;;;;;;;;;5130240;27;20413;-77
2022/05/15 15:49:57;;;;;;;18.90;14.57;;;;;;;;;;5130010;27;20050;-76
2022/05/15 15:52:28;;;;;;;20.48;16.33;;;;;;;;;;5129391;27;20043;-75
2022/05/15 15:54:59;;;;;;;14.55;11.88;;;;;;;;;;5130024;27;20058;-77
2022/05/15 15:57:28;;;;;;;16.92;10.75;;;;;;;;;;5129912;27;20589;-75
2022/05/15 15:59:58;;;;;;;10.90;8.15;;;;;;;;;;5129791;27;20051;-80
2022/05/15 16:02:28;;;;;;;12.23;8.73;;;;;;;;;;5128758;27;20150;-75
2022/05/15 16:04:58;;;;;;;8.73;7.20;;;;;;;;;;5129907;27;20212;-76
2022/05/15 16:07:28;;;;;;;8.65;7.00;;;;;;;;;;5130524;27;20383;-75
2022/05/15 16:09:58;;;;;;;7.63;6.22;;;;;;;;;;5130402;27;20244;-75
2022/05/15 16:12:28;;;;;;;8.10;6.22;;;;;;;;;;5128620;27;20150;-74
2022/05/15 16:15:00;;;;;;;19.55;7.90;;;;;;;;;;5130012;27;20054;-75
2022/05/15 16:17:31;;;;;;;11.32;7.03;;;;;;;;;;5129472;27;20036;-77
2022/05/15 16:20:00;;;;;;;9.75;5.68;;;;;;;;;;5129968;27;20490;-74
2022/05/15 16:22:33;;;;;;;7.07;4.97;;;;;;;;;;5130023;27;20047;-75
2022/05/15 16:25:06;;;;;;;6.22;3.83;;;;;;;;;;5129711;27;20043;-75
2022/05/15 16:27:36;;;;;;;4.15;3.55;;;;;;;;;;5129483;27;20043;-75
2022/05/15 16:30:09;;;;;;;5.75;3.63;;;;;;;;;;5129550;27;20054;-77
2022/05/15 16:32:43;;;;;;;4.35;2.97;;;;;;;;;;5129763;27;20409;-78
2022/05/15 16:35:13;;;;;;;6.03;3.53;;;;;;;;;;5129217;27;20050;-76
2022/05/15 16:37:45;;;;;;;3.95;2.75;;;;;;;;;;5129950;27;20054;-75
2022/05/15 16:40:15;;;;;;;;;;;;;;;;;;5129355;27;20058;-75
2022/05/15 16:42:47;;;;;;;4.28;2.50;;;;;;;;;;5129414;27;19926;-75
2022/05/15 16:45:18;;;;;;;;;;;;;;;;;;5129632;27;20066;-76
2022/05/15 16:47:50;;;;;;;6.10;2.40;;;;;;;;;;5129853;27;19930;-75
2022/05/15 16:50:20;;;;;;;6.40;2.40;;;;;;;;;;5129156;27;20063;-77
2022/05/15 16:52:53;;;;;;;4.30;2.60;;;;;;;;;;5129158;27;20073;-76
2022/05/15 16:55:31;;;;;;;9.65;2.55;;;;;;;;;;5128861;27;20061;-78
2022/05/15 16:58:01;;;;;;;5.75;2.35;;;;;;;;;;5128036;27;20059;-75
2022/05/15 17:00:32;;;;;;;3.38;2.22;;;;;;;;;;5126698;27;20058;-76
2022/05/15 17:03:06;;;;;;;6.15;2.20;;;;;;;;;;5128411;27;20051;-74
2022/05/15 17:05:36;;;;;;;6.97;2.30;;;;;;;;;;5128553;27;20027;-76
2022/05/15 17:08:07;;;;;;;5.88;2.03;;;;;;;;;;5128292;27;20501;-78
2022/05/15 17:10:37;;;;;;;6.32;2.35;;;;;;;;;;5129275;27;20054;-76
2022/05/15 17:13:07;;;;;;;4.72;2.30;;;;;;;;;;5129730;27;20540;-75
2022/05/15 17:15:38;;;;;;;6.20;2.25;;;;;;;;;;5126954;27;20055;-76